createdAt,value
2022-08-25T00:02:04.708Z,10.63
2022-08-25T00:04:31.727Z,12.15
2022-08-25T00:07:03.183Z,9.75
2022-08-25T00:09:31.554Z,9.43
2022-08-25T00:11:58.782Z,10.40
2022-08-25T00:14:34.380Z,10.25
2022-08-25T00:17:01.631Z,12.57
2022-08-25T00:19:32.183Z,11.45
2022-08-25T00:22:00.859Z,13.20
2022-08-25T00:24:28.541Z,11.02
2022-08-25T00:26:58.132Z,11.98
2022-08-25T00:29:29.369Z,10.25
2022-08-25T00:31:58.053Z,10.98
2022-08-25T00:34:34.419Z,13.00
2022-08-25T00:37:02.012Z,14.60
2022-08-25T00:39:28.822Z,14.23
2022-08-25T00:41:57.711Z,15.13
2022-08-25T00:44:26.680Z,13.20
2022-08-25T00:46:56.677Z,14.02
2022-08-25T00:49:56.940Z,12.93
2022-08-25T00:52:32.071Z,13.27
2022-08-25T00:55:14.549Z,12.50
2022-08-25T00:57:47.154Z,12.52
2022-08-25T01:00:28.930Z,10.85
2022-08-25T01:02:57.933Z,12.57
2022-08-25T01:05:26.958Z,9.50
2022-08-25T01:08:02.755Z,10.98
2022-08-25T01:10:32.504Z,9.95
2022-08-25T01:13:06.415Z,9.52
2022-08-25T01:15:41.998Z,9.93
2022-08-25T01:18:08.971Z,10.00
2022-08-25T01:20:35.811Z,11.40
2022-08-25T01:23:04.816Z,10.02
2022-08-25T01:26:09.498Z,9.75
2022-08-25T01:28:36.831Z,9.52
2022-08-25T01:31:05.136Z,9.82
2022-08-25T01:33:56.508Z,11.18
2022-08-25T01:36:23.867Z,10.38
2022-08-25T01:38:51.518Z,11.20
2022-08-25T01:41:31.842Z,10.25
2022-08-25T01:43:58.708Z,11.60
2022-08-25T01:46:26.852Z,10.50
2022-08-25T01:48:55.302Z,9.82
2022-08-25T01:51:25.372Z,8.98
2022-08-25T01:53:52.034Z,10.95
2022-08-25T01:56:23.047Z,12.48
2022-08-25T01:58:50.098Z,10.55
2022-08-25T02:01:20.246Z,10.45
2022-08-25T02:03:52.931Z,11.93
2022-08-25T02:06:30.029Z,11.65
2022-08-25T02:09:01.165Z,11.95
2022-08-25T02:11:29.196Z,11.23
2022-08-25T02:13:56.396Z,10.23
2022-08-25T02:16:28.287Z,11.48
2022-08-25T02:18:56.305Z,12.38
2022-08-25T02:21:23.390Z,11.88
2022-08-25T02:23:50.178Z,11.30
2022-08-25T02:26:19.069Z,10.60
2022-08-25T02:28:47.264Z,13.35
2022-08-25T02:31:15.202Z,11.05
2022-08-25T02:33:42.209Z,13.10
2022-08-25T02:36:09.640Z,10.80
2022-08-25T02:38:39.238Z,12.00
2022-08-25T02:41:31.216Z,13.27
2022-08-25T02:44:00.229Z,11.30
2022-08-25T02:46:26.993Z,11.95
2022-08-25T02:48:53.897Z,13.23
2022-08-25T02:51:22.794Z,11.20
2022-08-25T02:53:49.903Z,10.85
2022-08-25T02:56:18.785Z,13.35
2022-08-25T02:58:46.333Z,12.02
2022-08-25T03:01:13.779Z,14.98
2022-08-25T03:03:44.515Z,11.20
2022-08-25T03:06:14.379Z,12.55
2022-08-25T03:08:42.279Z,15.27
2022-08-25T03:11:09.546Z,12.10
2022-08-25T03:13:37.588Z,12.55
2022-08-25T03:16:10.799Z,13.30
2022-08-25T03:18:39.901Z,14.60
2022-08-25T03:21:07.594Z,13.82
2022-08-25T03:23:34.835Z,17.15
2022-08-25T03:26:20.833Z,14.38
2022-08-25T03:28:47.643Z,15.27
2022-08-25T03:31:14.454Z,13.30
2022-08-25T03:33:42.069Z,15.77
2022-08-25T03:36:12.139Z,13.90
2022-08-25T03:38:39.927Z,16.48
2022-08-25T03:41:29.960Z,15.60
2022-08-25T03:43:57.448Z,15.25
2022-08-25T03:46:32.266Z,14.35
2022-08-25T03:49:01.989Z,20.13
2022-08-25T03:51:32.357Z,13.75
2022-08-25T03:54:00.143Z,15.05
2022-08-25T03:56:27.879Z,18.45
2022-08-25T03:58:55.862Z,17.02
2022-08-25T04:01:23.771Z,18.50
2022-08-25T04:03:50.666Z,19.85
2022-08-25T04:06:18.631Z,20.30
2022-08-25T04:08:46.257Z,18.83
2022-08-25T04:11:18.328Z,24.63
2022-08-25T04:13:48.795Z,21.38
2022-08-25T04:16:19.574Z,18.50
2022-08-25T04:18:47.848Z,14.65
2022-08-25T04:21:16.350Z,17.40
2022-08-25T04:23:44.975Z,16.58
2022-08-25T04:26:14.438Z,17.73
2022-08-25T04:28:41.393Z,17.83
2022-08-25T04:31:10.478Z,18.63
2022-08-25T04:33:38.248Z,21.38
2022-08-25T04:36:11.940Z,21.80
2022-08-25T04:38:41.435Z,19.58
2022-08-25T04:41:09.529Z,18.25
2022-08-25T04:43:37.590Z,17.10
2022-08-25T04:46:13.029Z,19.02
2022-08-25T04:48:40.669Z,19.17
2022-08-25T04:51:09.978Z,19.77
2022-08-25T04:56:29.900Z,15.90
2022-08-25T04:59:03.349Z,19.08
2022-08-25T05:01:30.154Z,17.33
2022-08-25T05:04:00.357Z,19.83
2022-08-25T05:06:30.004Z,16.90
2022-08-25T05:08:58.607Z,17.13
2022-08-25T05:11:26.773Z,20.27
2022-08-25T05:13:56.149Z,19.73
2022-08-25T05:16:25.856Z,18.52
2022-08-25T05:18:53.829Z,18.00
2022-08-25T05:21:26.282Z,18.20
2022-08-25T05:24:01.182Z,18.83
2022-08-25T05:28:58.759Z,15.85
2022-08-25T05:31:26.955Z,15.85
2022-08-25T05:33:55.038Z,17.10
2022-08-25T05:36:23.098Z,20.42
2022-08-25T05:38:49.852Z,14.93
2022-08-25T05:41:24.577Z,17.35
2022-08-25T05:43:51.305Z,20.98
2022-08-25T05:46:19.860Z,15.88
2022-08-25T05:48:46.903Z,18.60
2022-08-25T05:51:15.034Z,14.32
2022-08-25T05:53:44.678Z,18.50
2022-08-25T05:56:14.857Z,15.23
2022-08-25T05:58:43.085Z,13.43
2022-08-25T06:01:29.461Z,22.23
2022-08-25T06:03:57.590Z,13.68
2022-08-25T06:06:24.546Z,15.95
2022-08-25T06:08:52.051Z,14.68
2022-08-25T06:11:19.432Z,16.48
2022-08-25T06:13:46.582Z,14.65
2022-08-25T06:16:13.279Z,13.98
2022-08-25T06:18:40.062Z,16.35
2022-08-25T06:21:12.860Z,12.23
2022-08-25T06:23:42.522Z,12.50
2022-08-25T06:26:13.337Z,14.95
2022-08-25T06:28:55.068Z,17.83
2022-08-25T06:31:22.827Z,14.52
2022-08-25T06:33:50.228Z,15.82
2022-08-25T06:36:17.139Z,13.57
2022-08-25T06:38:43.845Z,14.77
2022-08-25T06:41:14.027Z,16.05
2022-08-25T06:43:47.950Z,14.60
2022-08-25T06:46:20.202Z,16.83
2022-08-25T06:48:47.628Z,18.42
2022-08-25T06:51:18.096Z,16.48
2022-08-25T06:53:47.763Z,16.08
2022-08-25T06:56:16.327Z,15.98
2022-08-25T06:58:43.379Z,15.65
2022-08-25T07:01:20.224Z,21.55
2022-08-25T07:03:48.623Z,15.70
2022-08-25T07:06:18.227Z,21.05
2022-08-25T07:08:46.149Z,18.27
2022-08-25T07:11:16.576Z,16.88
2022-08-25T07:13:45.138Z,19.23
2022-08-25T07:16:12.013Z,18.00
2022-08-25T07:18:39.179Z,19.65
2022-08-25T07:21:08.965Z,15.27
2022-08-25T07:23:36.969Z,17.70
2022-08-25T07:26:36.218Z,16.70
2022-08-25T07:29:32.064Z,18.10
2022-08-25T07:32:03.928Z,20.15
2022-08-25T07:34:52.512Z,18.40
2022-08-25T07:37:38.247Z,21.20
2022-08-25T07:40:09.196Z,17.67
2022-08-25T07:42:36.083Z,19.48
2022-08-25T07:45:06.197Z,21.95
2022-08-25T07:47:34.912Z,21.52
2022-08-25T07:50:01.887Z,21.90
2022-08-25T07:52:28.586Z,16.42
2022-08-25T07:54:59.310Z,15.38
2022-08-25T07:57:27.076Z,21.67
2022-08-25T07:59:54.291Z,16.60
2022-08-25T08:02:21.230Z,23.45
2022-08-25T08:04:53.182Z,20.13
2022-08-25T08:07:23.523Z,16.70
2022-08-25T08:10:18.970Z,14.95
2022-08-25T08:12:40.573Z,19.05
2022-08-25T08:15:10.505Z,16.80
2022-08-25T08:17:39.208Z,19.40
2022-08-25T08:20:09.067Z,14.05
2022-08-25T08:22:41.488Z,17.45
2022-08-25T08:25:11.083Z,24.33
2022-08-25T08:27:37.934Z,22.13
2022-08-25T08:30:06.607Z,18.65
2022-08-25T08:33:05.933Z,18.25
2022-08-25T08:35:22.562Z,17.63
2022-08-25T08:37:49.228Z,16.50
2022-08-25T08:40:21.268Z,16.95
2022-08-25T08:43:07.260Z,18.35
2022-08-25T08:45:52.039Z,23.05
2022-08-25T08:48:37.371Z,14.10
2022-08-25T08:51:32.947Z,22.88
2022-08-25T08:56:48.224Z,18.35
2022-08-25T08:59:29.997Z,22.35
2022-08-25T09:02:01.104Z,20.67
2022-08-25T09:04:44.394Z,20.23
2022-08-25T09:07:18.498Z,24.30
2022-08-25T09:09:48.327Z,17.83
2022-08-25T09:12:38.063Z,19.73
2022-08-25T09:16:20.573Z,25.27
2022-08-25T09:19:35.078Z,18.83
2022-08-25T09:22:01.885Z,19.60
2022-08-25T09:24:44.484Z,23.90
2022-08-25T09:27:36.998Z,21.67
2022-08-25T09:30:11.041Z,17.80
2022-08-25T09:33:06.807Z,16.17
2022-08-25T09:35:39.951Z,20.85
2022-08-25T09:38:10.075Z,16.08
2022-08-25T09:40:44.385Z,19.63
2022-08-25T09:43:37.906Z,18.27
2022-08-25T09:46:26.926Z,14.57
2022-08-25T09:48:57.679Z,19.15
2022-08-25T09:51:42.517Z,15.10
2022-08-25T09:54:15.037Z,15.32
2022-08-25T09:57:02.197Z,15.70
2022-08-25T09:59:38.233Z,19.63
2022-08-25T10:02:28.982Z,16.42
2022-08-25T10:04:56.537Z,16.63
2022-08-25T10:07:25.482Z,16.75
2022-08-25T10:09:58.655Z,17.13
2022-08-25T10:12:42.811Z,21.52
2022-08-25T10:15:37.149Z,17.65
2022-08-25T10:18:30.211Z,21.88
2022-08-25T10:21:09.793Z,15.02
2022-08-25T10:23:52.799Z,19.85
2022-08-25T10:26:35.087Z,18.20
2022-08-25T10:29:02.024Z,19.70
2022-08-25T10:31:52.010Z,22.58
2022-08-25T10:34:25.701Z,22.25
2022-08-25T10:37:16.691Z,15.48
2022-08-25T10:40:11.138Z,18.15
2022-08-25T10:45:42.193Z,21.45
2022-08-25T10:48:27.180Z,17.80
2022-08-25T10:51:02.889Z,14.32
2022-08-25T10:53:41.439Z,19.58
2022-08-25T10:56:12.567Z,17.75
2022-08-25T10:59:11.031Z,17.67
2022-08-25T11:02:33.580Z,16.33
2022-08-25T11:05:11.589Z,17.55
2022-08-25T11:07:47.177Z,16.67
2022-08-25T11:10:24.770Z,18.63
2022-08-25T11:12:57.624Z,21.48
2022-08-25T11:15:54.851Z,17.85
2022-08-25T11:18:31.997Z,16.70
2022-08-25T11:21:10.157Z,19.55
2022-08-25T11:24:11.076Z,23.30
2022-08-25T11:26:41.710Z,16.30
2022-08-25T11:29:19.341Z,19.63
2022-08-25T11:31:53.379Z,17.52
2022-08-25T11:34:22.110Z,18.88
2022-08-25T11:37:01.159Z,20.38
2022-08-25T11:39:55.956Z,15.60
2022-08-25T11:43:03.046Z,17.20
2022-08-25T11:45:41.068Z,17.58
2022-08-25T11:48:16.082Z,14.90
2022-08-25T11:51:30.927Z,17.67
2022-08-25T11:54:18.757Z,15.32
2022-08-25T11:57:04.257Z,17.52
2022-08-25T11:59:49.518Z,17.63
2022-08-25T12:02:41.056Z,18.30
2022-08-25T12:05:24.696Z,20.92
2022-08-25T12:08:14.473Z,20.42
2022-08-25T12:11:10.624Z,19.48
2022-08-25T12:13:48.616Z,22.75
2022-08-25T12:17:02.360Z,17.50
2022-08-25T12:19:36.297Z,15.95
2022-08-25T12:22:03.342Z,17.93
2022-08-25T12:24:47.678Z,19.05
2022-08-25T12:27:33.848Z,17.48
2022-08-25T12:30:24.432Z,19.25
2022-08-25T12:33:02.205Z,17.90
2022-08-25T12:35:56.833Z,17.58
2022-08-25T12:38:44.180Z,15.43
2022-08-25T12:41:24.267Z,15.07
2022-08-25T12:43:54.725Z,15.68
2022-08-25T12:46:21.628Z,17.33
2022-08-25T12:49:04.897Z,20.80
2022-08-25T12:51:41.207Z,14.68
2022-08-25T12:54:29.856Z,15.55
2022-08-25T12:57:03.093Z,15.73
2022-08-25T13:02:07.816Z,15.73
2022-08-25T13:05:14.291Z,15.75
2022-08-25T13:08:22.748Z,16.88
2022-08-25T13:11:16.098Z,17.15
2022-08-25T13:14:27.041Z,21.10
2022-08-25T13:17:00.049Z,15.63
2022-08-25T13:19:34.781Z,15.02
2022-08-25T13:22:15.937Z,16.85
2022-08-25T13:24:47.640Z,19.77
2022-08-25T13:27:26.726Z,17.30
2022-08-25T13:29:59.957Z,12.65
2022-08-25T13:32:35.357Z,15.10
2022-08-25T13:35:20.147Z,14.30
2022-08-25T13:37:47.352Z,13.88
2022-08-25T13:40:19.810Z,16.42
2022-08-25T13:42:55.471Z,16.23
2022-08-25T13:45:31.641Z,14.88
2022-08-25T13:47:59.088Z,14.80
2022-08-25T13:50:26.395Z,16.88
2022-08-25T13:52:58.923Z,18.27
2022-08-25T13:55:51.535Z,14.18
2022-08-25T13:58:44.262Z,13.07
2022-08-25T14:01:48.247Z,17.27
2022-08-25T14:04:20.315Z,13.98
2022-08-25T14:06:48.240Z,15.10
2022-08-25T14:09:18.594Z,14.05
2022-08-25T14:11:58.756Z,16.63
2022-08-25T14:14:25.365Z,22.83
2022-08-25T14:17:21.558Z,16.98
2022-08-25T14:19:54.785Z,17.13
2022-08-25T14:22:23.982Z,9.05
2022-08-25T14:24:53.429Z,13.45
2022-08-25T14:27:24.700Z,15.82
2022-08-25T14:29:52.928Z,16.30
2022-08-25T14:32:22.869Z,14.85
2022-08-25T14:34:49.605Z,16.05
2022-08-25T14:37:20.283Z,14.90
2022-08-25T14:39:54.298Z,19.50
2022-08-25T14:42:22.562Z,16.77
2022-08-25T14:44:52.188Z,15.70
2022-08-25T14:47:23.505Z,16.52
2022-08-25T14:49:51.082Z,18.23
2022-08-25T14:52:30.585Z,21.20
2022-08-25T14:54:57.668Z,15.65
2022-08-25T14:57:25.418Z,15.73
2022-08-25T14:59:53.195Z,13.35
2022-08-25T15:02:22.808Z,15.95
2022-08-25T15:05:05.783Z,17.90
2022-08-25T15:07:52.292Z,15.35
2022-08-25T15:10:21.800Z,13.32
2022-08-25T15:12:54.026Z,16.98
2022-08-25T15:15:22.067Z,10.95
2022-08-25T15:17:50.398Z,16.83
2022-08-25T15:20:17.196Z,14.27
2022-08-25T15:22:46.976Z,13.65
2022-08-25T15:25:14.566Z,12.80
2022-08-25T15:27:41.339Z,16.77
2022-08-25T15:30:11.495Z,14.38
2022-08-25T15:32:39.778Z,15.40
2022-08-25T15:35:07.329Z,14.88
2022-08-25T15:37:35.864Z,14.20
2022-08-25T15:40:07.097Z,14.98
2022-08-25T15:42:34.638Z,14.80
2022-08-25T15:45:05.306Z,13.65
2022-08-25T15:47:32.417Z,18.65
2022-08-25T15:50:07.627Z,14.43
2022-08-25T15:52:44.526Z,14.70
2022-08-25T15:55:15.672Z,15.07
2022-08-25T15:57:42.649Z,16.40
2022-08-25T16:00:12.039Z,17.60
2022-08-25T16:02:40.608Z,18.42
2022-08-25T16:05:09.167Z,16.42
2022-08-25T16:07:36.688Z,15.43
2022-08-25T16:10:05.674Z,14.32
2022-08-25T16:12:32.334Z,8.52
2022-08-25T16:14:59.618Z,14.05
2022-08-25T16:17:26.781Z,7.43
2022-08-25T16:19:53.542Z,11.77
2022-08-25T16:22:20.288Z,11.27
2022-08-25T16:24:47.078Z,10.23
2022-08-25T16:27:14.287Z,9.88
2022-08-25T16:29:43.944Z,11.05
2022-08-25T16:32:14.171Z,9.82
2022-08-25T16:34:41.562Z,14.18
2022-08-25T16:37:09.244Z,12.10
2022-08-25T16:39:37.245Z,12.27
2022-08-25T16:42:08.795Z,9.23
2022-08-25T16:44:35.573Z,12.60
2022-08-25T16:47:02.517Z,9.27
2022-08-25T16:49:31.111Z,11.93
2022-08-25T16:51:58.006Z,13.43
2022-08-25T16:54:47.149Z,11.05
2022-08-25T16:57:15.060Z,9.00
2022-08-25T16:59:43.857Z,9.13
2022-08-25T17:02:10.831Z,6.90
2022-08-25T17:04:38.799Z,9.52
2022-08-25T17:07:08.516Z,9.55
2022-08-25T17:09:35.309Z,6.70
2022-08-25T17:12:03.211Z,8.18
2022-08-25T17:14:34.925Z,10.25
2022-08-25T17:17:07.097Z,5.90
2022-08-25T17:19:34.293Z,7.30
2022-08-25T17:22:02.533Z,7.05
2022-08-25T17:24:31.740Z,5.78
2022-08-25T17:27:01.341Z,8.57
2022-08-25T17:29:28.594Z,10.85
2022-08-25T17:31:55.438Z,12.95
2022-08-25T17:34:23.222Z,11.73
2022-08-25T17:36:53.357Z,10.93
2022-08-25T17:39:22.259Z,11.40
2022-08-25T17:41:49.548Z,9.85
2022-08-25T17:44:19.453Z,10.68
2022-08-25T17:46:48.610Z,9.13
2022-08-25T17:49:18.219Z,10.15
2022-08-25T17:51:46.797Z,9.63
2022-08-25T17:54:13.741Z,10.27
2022-08-25T17:56:41.092Z,14.82
2022-08-25T17:59:08.579Z,12.30
2022-08-25T18:01:40.563Z,10.10
2022-08-25T18:04:17.053Z,9.63
2022-08-25T18:06:45.413Z,10.85
2022-08-25T18:09:12.491Z,9.85
2022-08-25T18:11:39.189Z,10.10
2022-08-25T18:14:05.876Z,9.48
2022-08-25T18:16:32.693Z,9.02
2022-08-25T18:19:01.626Z,6.80
2022-08-25T18:21:30.567Z,9.90
2022-08-25T18:23:57.816Z,10.20
2022-08-25T18:26:27.966Z,10.70
2022-08-25T18:28:57.341Z,9.02
2022-08-25T18:31:26.741Z,11.20
2022-08-25T18:33:53.633Z,10.82
2022-08-25T18:36:21.035Z,10.63
2022-08-25T18:39:09.142Z,12.23
2022-08-25T18:41:42.586Z,9.57
2022-08-25T18:44:10.709Z,10.77
2022-08-25T18:46:37.943Z,11.93
2022-08-25T18:49:05.560Z,12.10
2022-08-25T18:51:33.594Z,10.60
2022-08-25T18:54:01.351Z,9.48
2022-08-25T18:56:28.961Z,9.43
2022-08-25T18:58:56.091Z,9.45
2022-08-25T19:01:23.022Z,8.63
2022-08-25T19:03:52.102Z,8.63
2022-08-25T19:06:19.445Z,11.13
2022-08-25T19:08:48.256Z,8.65
2022-08-25T19:11:15.988Z,10.98
2022-08-25T19:13:50.400Z,10.00
2022-08-25T19:16:30.075Z,8.57
2022-08-25T19:18:59.764Z,10.02
2022-08-25T19:21:29.455Z,8.93
2022-08-25T19:23:56.179Z,7.13
2022-08-25T19:26:26.034Z,9.48
2022-08-25T19:28:53.877Z,9.30
2022-08-25T19:31:24.115Z,9.52
2022-08-25T19:33:54.062Z,8.48
2022-08-25T19:36:24.774Z,9.80
2022-08-25T19:38:58.327Z,7.80
2022-08-25T19:41:27.491Z,9.20
2022-08-25T19:43:57.477Z,9.45
2022-08-25T19:46:32.238Z,8.05
2022-08-25T19:49:08.820Z,9.15
2022-08-25T19:51:51.205Z,8.50
2022-08-25T19:54:26.318Z,10.18
2022-08-25T19:59:42.249Z,9.90
2022-08-25T20:02:17.538Z,11.23
2022-08-25T20:04:49.778Z,9.88
2022-08-25T20:07:25.134Z,9.65
2022-08-25T20:12:23.041Z,9.75
2022-08-25T20:14:51.440Z,9.20
2022-08-25T20:17:24.190Z,11.88
2022-08-25T20:19:58.765Z,13.82
2022-08-25T20:22:28.024Z,8.75
2022-08-25T20:24:59.155Z,10.38
2022-08-25T20:27:38.076Z,11.30
2022-08-25T20:30:11.325Z,15.38
2022-08-25T20:32:40.480Z,21.60
2022-08-25T20:35:12.987Z,28.95
2022-08-25T20:37:42.165Z,25.90
2022-08-25T20:40:09.914Z,18.10
2022-08-25T20:42:37.217Z,16.30
2022-08-25T20:45:07.706Z,11.85
2022-08-25T20:47:36.228Z,13.43
2022-08-25T20:50:06.768Z,13.18
2022-08-25T20:52:34.864Z,10.98
2022-08-25T20:55:05.638Z,9.77
2022-08-25T20:57:34.128Z,10.82
2022-08-25T21:00:04.031Z,9.65
2022-08-25T21:02:31.219Z,13.55
2022-08-25T21:04:58.133Z,10.32
2022-08-25T21:07:27.539Z,13.10
2022-08-25T21:09:54.977Z,11.70
2022-08-25T21:12:21.761Z,9.93
2022-08-25T21:14:48.638Z,11.10
2022-08-25T21:17:16.028Z,12.38
2022-08-25T21:22:18.892Z,12.52
2022-08-25T21:24:45.816Z,12.88
2022-08-25T21:27:12.666Z,10.73
2022-08-25T21:29:44.757Z,13.70
2022-08-25T21:32:22.828Z,11.82
2022-08-25T21:34:56.247Z,10.07
2022-08-25T21:37:23.643Z,11.07
2022-08-25T21:39:52.590Z,13.05
2022-08-25T21:42:20.955Z,12.10
2022-08-25T21:44:50.637Z,11.55
2022-08-25T21:47:21.332Z,11.18
2022-08-25T21:49:48.882Z,12.18
2022-08-25T21:52:15.856Z,11.32
2022-08-25T21:54:46.555Z,13.15
2022-08-25T21:57:13.827Z,13.02
2022-08-25T21:59:41.298Z,13.60
2022-08-25T22:02:13.395Z,17.00
2022-08-25T22:04:42.223Z,12.48
2022-08-25T22:07:12.167Z,14.10
2022-08-25T22:09:40.078Z,9.68
2022-08-25T22:12:08.725Z,12.60
2022-08-25T22:14:36.520Z,13.02
2022-08-25T22:17:04.594Z,13.82
2022-08-25T22:19:31.403Z,14.30
2022-08-25T22:22:02.779Z,13.57
2022-08-25T22:24:31.871Z,14.18
2022-08-25T22:26:58.737Z,8.90
2022-08-25T22:29:27.353Z,16.30
2022-08-25T22:31:59.443Z,11.93
2022-08-25T22:34:32.444Z,13.57
2022-08-25T22:37:01.014Z,14.48
2022-08-25T22:39:28.559Z,14.50
2022-08-25T22:41:55.503Z,16.77
2022-08-25T22:44:23.255Z,12.93
2022-08-25T22:46:50.059Z,13.35
2022-08-25T22:49:17.302Z,12.85
2022-08-25T22:51:44.487Z,13.85
2022-08-25T22:54:15.122Z,13.13
2022-08-25T22:56:42.580Z,13.20
2022-08-25T22:59:13.698Z,10.95
2022-08-25T23:01:42.825Z,13.35
2022-08-25T23:04:10.805Z,12.50
2022-08-25T23:06:40.477Z,17.95
2022-08-25T23:09:10.788Z,14.20
2022-08-25T23:11:38.885Z,13.38
2022-08-25T23:14:08.426Z,13.50
2022-08-25T23:16:35.231Z,12.45
2022-08-25T23:19:05.082Z,15.98
2022-08-25T23:21:51.295Z,14.20
2022-08-25T23:24:29.489Z,11.10
2022-08-25T23:27:00.643Z,12.13
2022-08-25T23:29:30.373Z,12.20
2022-08-25T23:31:58.095Z,15.40
2022-08-25T23:34:26.858Z,14.57
2022-08-25T23:36:55.946Z,13.93
2022-08-25T23:39:22.953Z,15.48
2022-08-25T23:41:50.492Z,12.65
2022-08-25T23:44:19.094Z,14.73
2022-08-25T23:46:47.676Z,18.67
2022-08-25T23:49:19.033Z,14.95
2022-08-25T23:51:47.910Z,11.88
2022-08-25T23:54:16.415Z,15.90
2022-08-25T23:56:52.436Z,14.73
2022-08-25T23:59:24.140Z,16.92
